createdAt,value
2019-03-26T00:00:16.643Z,27.40
2019-03-26T00:02:48.014Z,26.62
2019-03-26T00:05:17.888Z,28.75
2019-03-26T00:07:47.891Z,25.88
2019-03-26T00:10:23.293Z,25.68
2019-03-26T00:12:53.498Z,32.13
2019-03-26T00:15:26.372Z,32.85
2019-03-26T00:17:57.602Z,30.52
2019-03-26T00:20:27.489Z,31.85
2019-03-26T00:23:06.362Z,31.77
2019-03-26T00:25:36.504Z,30.90
2019-03-26T00:28:10.914Z,29.57
2019-03-26T00:30:40.879Z,28.38
2019-03-26T00:33:10.684Z,27.48
2019-03-26T00:35:45.016Z,25.48
2019-03-26T00:38:15.176Z,25.72
2019-03-26T00:40:50.343Z,41.35
2019-03-26T00:43:20.524Z,51.77
2019-03-26T00:45:50.372Z,47.08
2019-03-26T00:48:20.524Z,49.53
2019-03-26T00:50:50.642Z,48.15
2019-03-26T00:53:20.552Z,49.18
2019-03-26T00:55:53.519Z,45.38
2019-03-26T00:58:24.756Z,45.80
2019-03-26T01:00:55.707Z,46.20
2019-03-26T01:03:26.556Z,49.03
2019-03-26T01:05:56.788Z,50.88
2019-03-26T01:08:26.933Z,45.23
2019-03-26T01:11:01.398Z,49.10
2019-03-26T01:13:33.970Z,49.23
2019-03-26T01:16:03.826Z,46.18
2019-03-26T01:18:33.592Z,41.08
2019-03-26T01:21:05.173Z,36.07
2019-03-26T01:23:35.306Z,37.80
2019-03-26T01:26:05.651Z,39.55
2019-03-26T01:28:35.541Z,36.20
2019-03-26T01:31:05.545Z,33.08
2019-03-26T01:33:38.290Z,30.72
2019-03-26T01:36:08.485Z,31.45
2019-03-26T01:38:38.295Z,29.05
2019-03-26T01:41:09.752Z,28.47
2019-03-26T01:43:39.760Z,28.20
2019-03-26T01:46:09.703Z,26.85
2019-03-26T01:48:39.834Z,32.03
2019-03-26T01:51:15.548Z,31.82
2019-03-26T01:53:45.513Z,31.05
2019-03-26T01:56:15.514Z,27.87
2019-03-26T01:58:45.629Z,25.68
2019-03-26T02:01:15.872Z,28.23
2019-03-26T02:03:45.926Z,25.27
2019-03-26T02:06:24.416Z,24.40
2019-03-26T02:08:54.348Z,31.05
2019-03-26T02:11:24.534Z,30.27
2019-03-26T02:13:54.388Z,29.75
2019-03-26T02:16:24.371Z,28.80
2019-03-26T02:18:54.209Z,31.37
2019-03-26T02:21:24.043Z,30.55
2019-03-26T02:23:53.935Z,31.02
2019-03-26T02:26:23.751Z,29.35
2019-03-26T02:28:53.762Z,29.12
2019-03-26T02:31:27.347Z,29.45
2019-03-26T02:33:57.125Z,27.37
2019-03-26T02:36:27.066Z,29.15
2019-03-26T02:38:56.942Z,30.92
2019-03-26T02:41:26.871Z,29.35
2019-03-26T02:44:02.134Z,33.42
2019-03-26T02:46:32.342Z,29.95
2019-03-26T02:49:02.267Z,26.70
2019-03-26T02:51:32.358Z,23.75
2019-03-26T02:54:02.491Z,24.57
2019-03-26T02:56:32.714Z,25.62
2019-03-26T02:59:09.040Z,27.55
2019-03-26T03:01:38.956Z,29.52
2019-03-26T03:04:09.156Z,30.23
2019-03-26T03:06:47.438Z,29.37
2019-03-26T03:09:17.568Z,32.85
2019-03-26T03:11:48.540Z,30.85
2019-03-26T03:14:18.770Z,26.15
2019-03-26T03:16:49.015Z,27.75
2019-03-26T03:19:19.283Z,30.62
2019-03-26T03:21:49.495Z,30.97
2019-03-26T03:24:20.806Z,29.55
2019-03-26T03:26:51.229Z,27.93
2019-03-26T03:29:21.273Z,27.55
2019-03-26T03:31:51.348Z,25.92
2019-03-26T03:34:21.507Z,30.17
2019-03-26T03:36:51.379Z,32.33
2019-03-26T03:39:21.381Z,34.38
2019-03-26T03:41:54.387Z,33.98
2019-03-26T03:44:24.446Z,27.32
2019-03-26T03:46:55.066Z,24.80
2019-03-26T03:49:26.472Z,30.90
2019-03-26T03:51:57.841Z,31.40
2019-03-26T03:54:27.665Z,31.77
2019-03-26T03:57:06.928Z,31.12
2019-03-26T03:59:37.840Z,31.82
2019-03-26T04:02:07.982Z,33.28
2019-03-26T04:04:37.707Z,30.40
2019-03-26T04:07:07.774Z,30.27
2019-03-26T04:09:37.592Z,29.35
2019-03-26T04:12:07.485Z,30.72
2019-03-26T04:14:37.594Z,32.93
2019-03-26T04:17:07.695Z,33.88
2019-03-26T04:19:37.902Z,33.42
2019-03-26T04:22:22.864Z,29.75
2019-03-26T04:24:52.630Z,31.85
2019-03-26T04:27:24.207Z,30.30
2019-03-26T04:29:56.739Z,31.12
2019-03-26T04:32:26.773Z,31.68
2019-03-26T04:34:56.682Z,25.23
2019-03-26T04:37:35.203Z,17.02
2019-03-26T04:40:05.587Z,25.52
2019-03-26T04:42:35.527Z,27.73
2019-03-26T04:45:05.641Z,27.65
2019-03-26T04:47:37.049Z,22.35
2019-03-26T04:50:08.132Z,22.35
2019-03-26T04:52:50.306Z,25.75
2019-03-26T04:55:20.321Z,24.37
2019-03-26T04:57:50.479Z,26.48
2019-03-26T05:00:21.069Z,24.40
2019-03-26T05:02:51.165Z,25.48
2019-03-26T05:05:22.417Z,24.75
2019-03-26T05:07:52.979Z,25.20
2019-03-26T05:10:23.298Z,26.50
2019-03-26T05:12:53.787Z,28.73
2019-03-26T05:15:23.950Z,28.05
2019-03-26T05:17:57.693Z,29.77
2019-03-26T05:20:29.825Z,27.73
2019-03-26T05:23:00.698Z,26.60
2019-03-26T05:25:31.130Z,28.73
2019-03-26T05:28:01.661Z,24.50
2019-03-26T05:30:33.109Z,20.77
2019-03-26T05:33:03.280Z,22.13
2019-03-26T05:35:33.578Z,22.80
2019-03-26T05:38:03.686Z,20.52
2019-03-26T05:40:34.046Z,19.32
2019-03-26T05:43:04.014Z,19.55
2019-03-26T05:45:34.458Z,20.57
2019-03-26T05:48:06.450Z,19.30
2019-03-26T05:50:36.947Z,20.97
2019-03-26T05:53:07.476Z,18.98
2019-03-26T05:55:37.497Z,22.22
2019-03-26T05:58:07.948Z,22.05
2019-03-26T06:00:39.881Z,21.17
2019-03-26T06:03:10.142Z,20.80
2019-03-26T06:05:40.603Z,23.05
2019-03-26T06:08:11.208Z,23.32
2019-03-26T06:10:41.761Z,18.90
2019-03-26T06:13:12.215Z,21.12
2019-03-26T06:15:42.198Z,22.42
2019-03-26T06:18:12.808Z,21.42
2019-03-26T06:20:43.239Z,22.73
2019-03-26T06:23:13.823Z,23.40
2019-03-26T06:25:44.078Z,21.12
2019-03-26T06:28:14.867Z,23.52
2019-03-26T06:30:45.182Z,23.87
2019-03-26T06:33:15.718Z,24.63
2019-03-26T06:35:46.370Z,24.63
2019-03-26T06:38:17.202Z,24.18
2019-03-26T06:40:47.932Z,22.55
2019-03-26T06:43:18.631Z,24.27
2019-03-26T06:45:49.127Z,24.35
2019-03-26T06:48:19.833Z,22.42
2019-03-26T06:50:52.766Z,24.30
2019-03-26T06:53:23.603Z,22.93
2019-03-26T06:55:54.276Z,23.67
2019-03-26T06:58:30.739Z,24.43
2019-03-26T07:01:01.334Z,23.05
2019-03-26T07:03:31.983Z,15.30
2019-03-26T07:06:05.142Z,24.05
2019-03-26T07:08:35.615Z,22.27
2019-03-26T07:11:07.646Z,25.10
2019-03-26T07:13:38.122Z,24.32
2019-03-26T07:16:08.752Z,25.25
2019-03-26T07:18:39.517Z,24.50
2019-03-26T07:21:09.957Z,25.30
2019-03-26T07:23:42.078Z,23.65
2019-03-26T07:26:12.963Z,23.20
2019-03-26T07:28:43.489Z,24.07
2019-03-26T07:31:13.890Z,24.43
2019-03-26T07:33:44.111Z,22.95
2019-03-26T07:36:14.540Z,28.80
2019-03-26T07:38:45.267Z,31.42
2019-03-26T07:41:15.690Z,28.85
2019-03-26T07:43:46.970Z,31.70
2019-03-26T07:46:17.338Z,23.80
2019-03-26T07:48:47.898Z,29.72
2019-03-26T07:51:18.393Z,23.83
2019-03-26T07:53:49.155Z,20.70
2019-03-26T07:56:19.636Z,21.45
2019-03-26T07:58:50.003Z,21.35
2019-03-26T08:01:20.689Z,24.32
2019-03-26T08:03:51.323Z,24.45
2019-03-26T08:06:21.562Z,23.27
2019-03-26T08:08:52.564Z,22.62
2019-03-26T08:11:22.795Z,23.38
2019-03-26T08:13:53.047Z,20.48
2019-03-26T08:16:23.440Z,22.22
2019-03-26T08:18:54.231Z,22.00
2019-03-26T08:21:24.501Z,20.70
2019-03-26T08:23:55.252Z,19.62
2019-03-26T08:26:26.153Z,20.20
2019-03-26T08:29:00.819Z,18.85
2019-03-26T08:31:29.939Z,21.02
2019-03-26T08:34:00.467Z,18.50
2019-03-26T08:36:30.549Z,18.57
2019-03-26T08:39:01.127Z,16.40
2019-03-26T08:41:33.375Z,16.67
2019-03-26T08:44:03.608Z,13.45
2019-03-26T08:46:33.782Z,15.80
2019-03-26T08:49:04.547Z,15.28
2019-03-26T08:51:34.685Z,14.68
2019-03-26T08:54:05.539Z,14.98
2019-03-26T08:56:36.410Z,13.75
2019-03-26T08:59:07.305Z,15.83
2019-03-26T09:01:38.329Z,15.98
2019-03-26T09:04:09.267Z,12.35
2019-03-26T09:06:39.825Z,15.23
2019-03-26T09:09:10.155Z,14.00
2019-03-26T09:11:40.319Z,13.15
2019-03-26T09:14:11.165Z,13.22
2019-03-26T09:16:41.411Z,14.90
2019-03-26T09:19:11.987Z,13.28
2019-03-26T09:21:42.444Z,13.68
2019-03-26T09:24:14.160Z,13.60
2019-03-26T09:26:44.777Z,13.60
2019-03-26T09:29:15.631Z,13.43
2019-03-26T09:31:46.375Z,13.78
2019-03-26T09:34:17.272Z,13.93
2019-03-26T09:36:48.084Z,11.88
2019-03-26T09:39:19.013Z,12.28
2019-03-26T09:41:49.591Z,11.70
2019-03-26T09:44:20.198Z,9.50
2019-03-26T09:46:50.661Z,10.28
2019-03-26T09:49:21.087Z,11.75
2019-03-26T09:51:51.739Z,9.10
2019-03-26T09:54:22.691Z,8.73
2019-03-26T09:56:53.327Z,9.80
2019-03-26T09:59:24.106Z,8.38
2019-03-26T10:01:54.448Z,7.60
2019-03-26T10:04:25.273Z,8.68
2019-03-26T10:06:55.698Z,9.33
2019-03-26T10:09:26.523Z,7.00
2019-03-26T10:11:57.484Z,8.15
2019-03-26T10:14:28.301Z,7.30
2019-03-26T10:16:59.008Z,8.45
2019-03-26T10:19:29.858Z,8.48
2019-03-26T10:22:00.550Z,7.60
2019-03-26T10:24:31.372Z,8.70
2019-03-26T10:27:10.555Z,8.48
2019-03-26T10:29:41.148Z,7.67
2019-03-26T10:32:11.843Z,7.12
2019-03-26T10:34:42.763Z,8.78
2019-03-26T10:37:13.563Z,7.22
2019-03-26T10:39:44.006Z,7.03
2019-03-26T10:42:14.768Z,6.35
2019-03-26T10:44:45.280Z,5.87
2019-03-26T10:47:15.952Z,5.62
2019-03-26T10:49:46.361Z,5.15
2019-03-26T10:52:17.070Z,6.20
2019-03-26T10:54:47.982Z,6.10
2019-03-26T10:57:21.799Z,4.87
2019-03-26T10:59:51.589Z,7.87
2019-03-26T11:02:22.068Z,6.53
2019-03-26T11:04:53.126Z,4.87
2019-03-26T11:07:23.722Z,5.70
2019-03-26T11:09:54.605Z,5.20
2019-03-26T11:12:25.520Z,5.90
2019-03-26T11:15:11.743Z,5.47
2019-03-26T11:17:42.255Z,5.45
2019-03-26T11:20:13.330Z,5.37
2019-03-26T11:22:43.956Z,5.70
2019-03-26T11:25:14.779Z,5.37
2019-03-26T11:27:45.162Z,5.05
2019-03-26T11:30:15.961Z,6.55
2019-03-26T11:32:47.851Z,5.67
2019-03-26T11:35:19.664Z,7.55
2019-03-26T11:37:50.682Z,5.35
2019-03-26T11:40:21.085Z,5.15
2019-03-26T11:42:51.377Z,5.22
2019-03-26T11:45:22.505Z,5.22
2019-03-26T11:47:52.691Z,5.12
2019-03-26T11:50:23.406Z,5.33
2019-03-26T11:52:53.654Z,5.70
2019-03-26T11:55:24.522Z,5.72
2019-03-26T11:57:54.525Z,3.72
2019-03-26T12:00:26.875Z,4.60
2019-03-26T12:05:26.943Z,3.58
2019-03-26T12:07:57.097Z,3.33
2019-03-26T12:10:36.618Z,2.90
2019-03-26T12:13:06.925Z,2.30
2019-03-26T12:15:37.379Z,3.10
2019-03-26T12:18:08.019Z,2.90
2019-03-26T12:20:38.811Z,3.27
2019-03-26T12:23:09.260Z,3.15
2019-03-26T12:25:40.900Z,4.10
2019-03-26T12:28:11.296Z,2.83
2019-03-26T12:30:41.856Z,3.42
2019-03-26T12:33:21.072Z,3.05
2019-03-26T12:35:51.706Z,4.25
2019-03-26T12:38:22.343Z,4.08
2019-03-26T12:40:53.541Z,4.10
2019-03-26T12:43:23.834Z,4.25
2019-03-26T12:45:55.687Z,4.00
2019-03-26T12:48:25.916Z,3.20
2019-03-26T12:50:56.171Z,3.42
2019-03-26T12:53:26.928Z,3.58
2019-03-26T12:55:57.863Z,2.80
2019-03-26T12:58:32.124Z,3.20
2019-03-26T13:01:00.369Z,3.85
2019-03-26T13:03:30.495Z,4.03
2019-03-26T13:06:00.384Z,4.12
2019-03-26T13:08:30.347Z,4.70
2019-03-26T13:11:00.766Z,5.20
2019-03-26T13:13:30.783Z,5.25
2019-03-26T13:16:01.160Z,4.47
2019-03-26T13:18:31.248Z,4.17
2019-03-26T13:21:01.238Z,4.60
2019-03-26T13:23:31.159Z,4.20
2019-03-26T13:26:01.040Z,4.87
2019-03-26T13:28:31.569Z,4.75
2019-03-26T13:31:01.438Z,4.87
2019-03-26T13:33:31.484Z,4.42
2019-03-26T13:36:01.559Z,2.90
2019-03-26T13:38:31.487Z,4.15
2019-03-26T13:41:01.723Z,4.03
2019-03-26T13:43:32.841Z,2.77
2019-03-26T13:46:02.999Z,3.05
2019-03-26T13:48:33.164Z,2.58
2019-03-26T13:51:03.399Z,3.50
2019-03-26T13:53:33.735Z,2.98
2019-03-26T13:56:03.870Z,2.98
2019-03-26T13:58:35.545Z,2.50
2019-03-26T14:01:05.572Z,2.40
2019-03-26T14:03:35.887Z,2.95
2019-03-26T14:06:06.081Z,2.83
2019-03-26T14:08:36.253Z,2.80
2019-03-26T14:11:06.282Z,2.90
2019-03-26T14:13:36.292Z,2.98
2019-03-26T14:16:06.427Z,2.35
2019-03-26T14:18:36.440Z,4.65
2019-03-26T14:21:06.518Z,2.83
2019-03-26T14:23:36.529Z,4.53
2019-03-26T14:26:07.042Z,2.65
2019-03-26T14:28:38.170Z,28.90
2019-03-26T14:31:08.198Z,19.42
2019-03-26T14:33:38.330Z,14.98
2019-03-26T14:36:09.901Z,2.62
2019-03-26T14:38:40.078Z,1.70
2019-03-26T14:41:10.278Z,1.77
2019-03-26T14:43:40.278Z,3.70
2019-03-26T14:46:10.260Z,2.83
2019-03-26T14:48:40.381Z,1.57
2019-03-26T14:51:10.358Z,2.92
2019-03-26T14:53:40.519Z,2.40
2019-03-26T14:56:10.799Z,5.70
2019-03-26T14:58:40.687Z,9.28
2019-03-26T15:01:10.487Z,3.55
2019-03-26T15:03:40.393Z,22.48
2019-03-26T15:06:10.217Z,3.30
2019-03-26T15:08:40.015Z,3.42
2019-03-26T15:11:09.786Z,4.37
2019-03-26T15:13:39.655Z,15.40
2019-03-26T15:16:10.722Z,27.62
2019-03-26T15:18:40.462Z,3.35
2019-03-26T15:21:10.415Z,3.75
2019-03-26T15:23:40.194Z,7.70
2019-03-26T15:26:10.070Z,3.12
2019-03-26T15:28:39.956Z,7.70
2019-03-26T15:31:09.740Z,5.87
2019-03-26T15:33:39.574Z,3.55
2019-03-26T15:36:09.320Z,3.35
2019-03-26T15:38:39.149Z,4.17
2019-03-26T15:41:20.945Z,3.83
2019-03-26T15:43:40.390Z,3.10
2019-03-26T15:46:10.152Z,4.10
2019-03-26T15:48:39.990Z,2.30
2019-03-26T15:51:09.782Z,13.08
2019-03-26T15:53:39.784Z,6.95
2019-03-26T15:56:09.961Z,8.00
2019-03-26T15:58:39.785Z,57.43
2019-03-26T16:01:09.701Z,13.58
2019-03-26T16:03:39.907Z,30.02
2019-03-26T16:06:09.871Z,28.90
2019-03-26T16:08:39.775Z,16.62
2019-03-26T16:11:09.881Z,12.82
2019-03-26T16:13:40.069Z,39.42
2019-03-26T16:16:10.211Z,20.43
2019-03-26T16:18:41.497Z,10.20
2019-03-26T16:21:11.390Z,9.65
2019-03-26T16:23:41.432Z,20.55
2019-03-26T16:26:11.397Z,25.40
2019-03-26T16:28:41.302Z,17.87
2019-03-26T16:31:12.422Z,7.03
2019-03-26T16:33:48.222Z,21.02
2019-03-26T16:36:18.072Z,28.62
2019-03-26T16:38:48.242Z,10.28
2019-03-26T16:41:18.370Z,10.58
2019-03-26T16:43:48.198Z,6.58
2019-03-26T16:46:18.247Z,5.75
2019-03-26T16:48:48.053Z,4.80
2019-03-26T16:51:17.869Z,4.85
2019-03-26T16:53:47.663Z,29.30
2019-03-26T16:56:17.558Z,13.40
2019-03-26T16:58:47.494Z,6.47
2019-03-26T17:01:17.486Z,12.85
2019-03-26T17:03:47.554Z,7.78
2019-03-26T17:06:17.402Z,18.02
2019-03-26T17:08:47.484Z,12.98
2019-03-26T17:11:17.406Z,13.88
2019-03-26T17:13:47.276Z,24.67
2019-03-26T17:16:17.107Z,12.13
2019-03-26T17:18:47.218Z,11.63
2019-03-26T17:21:18.530Z,16.30
2019-03-26T17:23:48.803Z,15.00
2019-03-26T17:26:19.024Z,16.17
2019-03-26T17:28:49.255Z,15.90
2019-03-26T17:31:19.513Z,9.28
2019-03-26T17:33:49.741Z,25.85
2019-03-26T17:36:22.707Z,9.83
2019-03-26T17:38:52.698Z,5.47
2019-03-26T17:41:22.728Z,8.65
2019-03-26T17:43:54.527Z,9.53
2019-03-26T17:46:24.389Z,13.98
2019-03-26T17:48:54.183Z,11.48
2019-03-26T17:51:24.122Z,22.45
2019-03-26T17:53:54.074Z,35.45
2019-03-26T17:56:24.206Z,32.60
2019-03-26T17:58:55.572Z,10.53
2019-03-26T18:01:25.523Z,6.80
2019-03-26T18:03:55.296Z,4.75
2019-03-26T18:06:25.464Z,5.37
2019-03-26T18:08:56.979Z,6.17
2019-03-26T18:11:27.162Z,9.38
2019-03-26T18:13:57.072Z,9.08
2019-03-26T18:16:27.222Z,12.58
2019-03-26T18:18:57.064Z,13.62
2019-03-26T18:21:26.946Z,13.13
2019-03-26T18:23:56.856Z,6.75
2019-03-26T18:26:26.628Z,13.53
2019-03-26T18:28:56.557Z,8.68
2019-03-26T18:31:26.417Z,8.98
2019-03-26T18:33:56.299Z,7.70
2019-03-26T18:36:26.209Z,6.17
2019-03-26T18:38:56.205Z,7.58
2019-03-26T18:41:25.915Z,7.45
2019-03-26T18:43:55.782Z,7.70
2019-03-26T18:46:25.873Z,7.85
2019-03-26T18:48:55.992Z,5.72
2019-03-26T18:51:26.228Z,12.73
2019-03-26T18:53:56.152Z,17.52
2019-03-26T18:56:25.938Z,14.85
2019-03-26T18:58:56.068Z,12.82
2019-03-26T19:01:26.557Z,19.65
2019-03-26T19:03:56.532Z,19.10
2019-03-26T19:06:26.499Z,12.20
2019-03-26T19:08:56.590Z,4.05
2019-03-26T19:11:26.387Z,4.75
2019-03-26T19:13:56.228Z,4.92
2019-03-26T19:16:27.197Z,8.05
2019-03-26T19:18:57.033Z,8.20
2019-03-26T19:21:26.887Z,4.80
2019-03-26T19:24:03.928Z,4.65
2019-03-26T19:26:28.408Z,8.70
2019-03-26T19:28:58.198Z,10.58
2019-03-26T19:31:28.207Z,31.87
2019-03-26T19:33:58.073Z,8.40
2019-03-26T19:36:27.901Z,14.38
2019-03-26T19:38:57.842Z,6.72
2019-03-26T19:41:27.965Z,6.03
2019-03-26T19:43:57.838Z,4.47
2019-03-26T19:46:27.618Z,5.22
2019-03-26T19:48:57.675Z,6.72
2019-03-26T19:51:27.415Z,8.90
2019-03-26T19:53:57.390Z,4.83
2019-03-26T19:56:28.486Z,5.40
2019-03-26T19:58:58.403Z,4.80
2019-03-26T20:01:28.346Z,4.10
2019-03-26T20:03:58.333Z,5.50
2019-03-26T20:06:28.089Z,8.43
2019-03-26T20:08:58.188Z,8.80
2019-03-26T20:11:28.264Z,10.82
2019-03-26T20:13:58.476Z,8.73
2019-03-26T20:16:41.057Z,9.80
2019-03-26T20:19:00.162Z,8.45
2019-03-26T20:21:29.962Z,8.83
2019-03-26T20:24:00.069Z,9.28
2019-03-26T20:26:29.808Z,9.28
2019-03-26T20:29:01.600Z,8.13
2019-03-26T20:34:02.452Z,8.28
2019-03-26T20:36:33.525Z,8.70
2019-03-26T20:39:03.567Z,8.18
2019-03-26T20:41:35.183Z,8.53
2019-03-26T20:44:05.119Z,7.72
2019-03-26T20:46:35.215Z,7.00
2019-03-26T20:49:05.996Z,6.92
2019-03-26T20:51:36.363Z,5.97
2019-03-26T20:54:08.147Z,5.65
2019-03-26T20:56:40.819Z,4.95
2019-03-26T20:59:10.477Z,4.87
2019-03-26T21:01:40.858Z,5.50
2019-03-26T21:04:12.465Z,11.12
2019-03-26T21:06:42.369Z,18.07
2019-03-26T21:09:12.200Z,14.05
2019-03-26T21:11:42.219Z,19.52
2019-03-26T21:14:12.217Z,15.35
2019-03-26T21:16:42.474Z,13.62
2019-03-26T21:19:12.447Z,12.23
2019-03-26T21:21:42.417Z,12.15
2019-03-26T21:24:12.436Z,7.05
2019-03-26T21:26:42.525Z,9.68
2019-03-26T21:29:13.087Z,9.35
2019-03-26T21:31:42.946Z,8.03
2019-03-26T21:34:12.995Z,6.28
2019-03-26T21:36:43.896Z,8.33
2019-03-26T21:39:14.194Z,6.90
2019-03-26T21:41:44.182Z,9.10
2019-03-26T21:44:14.014Z,6.85
2019-03-26T21:46:45.049Z,10.65
2019-03-26T21:49:15.203Z,9.83
2019-03-26T21:51:45.141Z,10.08
2019-03-26T21:54:15.016Z,14.23
2019-03-26T21:56:44.917Z,9.03
2019-03-26T21:59:15.005Z,9.95
2019-03-26T22:01:45.008Z,12.45
2019-03-26T22:04:16.045Z,9.13
2019-03-26T22:06:46.401Z,6.37
2019-03-26T22:09:16.516Z,6.00
2019-03-26T22:11:50.151Z,5.97
2019-03-26T22:14:18.788Z,6.05
2019-03-26T22:16:48.746Z,5.65
2019-03-26T22:19:28.520Z,7.12
2019-03-26T22:21:50.408Z,8.18
2019-03-26T22:24:20.324Z,5.00
2019-03-26T22:26:50.655Z,5.80
2019-03-26T22:29:20.734Z,5.80
2019-03-26T22:31:50.866Z,5.35
2019-03-26T22:34:20.977Z,6.10
2019-03-26T22:36:50.858Z,6.97
2019-03-26T22:39:21.060Z,6.90
2019-03-26T22:41:51.194Z,7.92
2019-03-26T22:44:30.819Z,8.15
2019-03-26T22:46:53.208Z,7.37
2019-03-26T22:49:23.244Z,7.55
2019-03-26T22:51:53.501Z,9.50
2019-03-26T22:54:23.501Z,10.43
2019-03-26T22:56:53.308Z,10.43
2019-03-26T22:59:23.952Z,10.18
2019-03-26T23:01:54.068Z,11.25
2019-03-26T23:04:25.138Z,12.55
2019-03-26T23:06:55.295Z,13.05
2019-03-26T23:09:25.324Z,15.88
2019-03-26T23:11:55.333Z,13.98
2019-03-26T23:14:25.392Z,15.70
2019-03-26T23:16:55.203Z,18.40
2019-03-26T23:19:25.271Z,17.82
2019-03-26T23:21:55.330Z,16.77
2019-03-26T23:24:25.335Z,19.52
2019-03-26T23:26:55.546Z,22.45
2019-03-26T23:29:25.388Z,24.20
2019-03-26T23:31:55.505Z,20.88
2019-03-26T23:34:25.302Z,21.97
2019-03-26T23:36:55.072Z,24.02
2019-03-26T23:39:24.893Z,27.58
2019-03-26T23:41:54.909Z,36.58
2019-03-26T23:44:26.450Z,42.33
2019-03-26T23:46:56.663Z,38.10
2019-03-26T23:49:27.005Z,38.95
2019-03-26T23:51:58.152Z,35.28
2019-03-26T23:54:28.268Z,24.18
2019-03-26T23:56:58.365Z,25.10
2019-03-26T23:59:28.228Z,27.70
